sensor_id;sensor_type;location;lat;lon;timestamp;P1;P2;P0
68198;PMS7003;55021;51.554;17.044;2023-02-21T00:12:36;15.75;14.50;5.75
68198;PMS7003;55021;51.554;17.044;2023-02-21T08:29:20;12.75;11.50;5.25
68198;PMS7003;55021;51.554;17.044;2023-02-21T08:44:24;9.50;9.50;3.00
68198;PMS7003;55021;51.554;17.044;2023-02-21T09:14:57;12.00;11.00;3.75
68198;PMS7003;55021;51.554;17.044;2023-02-21T09:29:59;14.00;12.75;6.50
68198;PMS7003;55021;51.554;17.044;2023-02-21T09:45:02;14.00;11.00;5.25
68198;PMS7003;55021;51.554;17.044;2023-02-21T10:00:09;15.75;14.00;7.00
68198;PMS7003;55021;51.554;17.044;2023-02-21T10:15:29;7.50;7.50;2.75
68198;PMS7003;55021;51.554;17.044;2023-02-21T10:30:44;9.00;5.25;2.00
68198;PMS7003;55021;51.554;17.044;2023-02-21T10:45:55;4.00;4.00;1.00
68198;PMS7003;55021;51.554;17.044;2023-02-21T11:01:04;3.50;3.50;1.00
68198;PMS7003;55021;51.554;17.044;2023-02-21T11:16:14;5.50;5.00;1.00
68198;PMS7003;55021;51.554;17.044;2023-02-21T11:31:20;4.00;4.00;0.00
68198;PMS7003;55021;51.554;17.044;2023-02-21T11:46:36;4.00;4.00;1.00
68198;PMS7003;55021;51.554;17.044;2023-02-21T12:01:49;8.00;6.00;1.00
68198;PMS7003;55021;51.554;17.044;2023-02-21T12:17:06;25.25;24.25;13.75
68198;PMS7003;55021;51.554;17.044;2023-02-21T12:47:48;8.75;7.00;2.00
68198;PMS7003;55021;51.554;17.044;2023-02-21T13:02:57;8.00;4.00;1.00
68198;PMS7003;55021;51.554;17.044;2023-02-21T13:18:16;6.75;5.00;1.00
68198;PMS7003;55021;51.554;17.044;2023-02-21T13:33:27;6.25;5.50;1.75
68198;PMS7003;55021;51.554;17.044;2023-02-21T13:48:36;9.00;7.00;2.00
68198;PMS7003;55021;51.554;17.044;2023-02-21T14:03:38;8.00;8.00;2.25
68198;PMS7003;55021;51.554;17.044;2023-02-21T14:18:43;9.00;8.00;2.00
68198;PMS7003;55021;51.554;17.044;2023-02-21T14:33:49;9.00;8.50;2.00
68198;PMS7003;55021;51.554;17.044;2023-02-21T14:48:57;7.00;6.75;2.00
68198;PMS7003;55021;51.554;17.044;2023-02-21T15:04:18;9.25;7.25;2.00
68198;PMS7003;55021;51.554;17.044;2023-02-21T15:19:40;13.75;11.25;3.50
68198;PMS7003;55021;51.554;17.044;2023-02-21T15:34:43;8.50;8.00;2.25
68198;PMS7003;55021;51.554;17.044;2023-02-21T15:49:51;26.75;22.00;11.75
68198;PMS7003;55021;51.554;17.044;2023-02-21T16:05:02;14.75;8.25;2.00
68198;PMS7003;55021;51.554;17.044;2023-02-21T16:20:14;16.25;15.50;7.00
68198;PMS7003;55021;51.554;17.044;2023-02-21T16:35:20;12.50;10.75;5.00
68198;PMS7003;55021;51.554;17.044;2023-02-21T16:50:26;13.50;10.75;5.00
68198;PMS7003;55021;51.554;17.044;2023-02-21T17:05:38;12.50;10.75;3.25
68198;PMS7003;55021;51.554;17.044;2023-02-21T17:20:46;15.50;11.00;3.00
68198;PMS7003;55021;51.554;17.044;2023-02-21T17:35:49;17.50;11.50;5.50
68198;PMS7003;55021;51.554;17.044;2023-02-21T17:50:53;19.50;16.00;7.50
68198;PMS7003;55021;51.554;17.044;2023-02-21T18:05:56;22.00;16.75;7.75
68198;PMS7003;55021;51.554;17.044;2023-02-21T18:21:00;20.50;18.75;9.00
68198;PMS7003;55021;51.554;17.044;2023-02-21T18:36:05;25.50;19.00;9.25
68198;PMS7003;55021;51.554;17.044;2023-02-21T18:51:09;28.00;21.75;11.25
68198;PMS7003;55021;51.554;17.044;2023-02-21T19:06:13;19.75;19.75;8.75
68198;PMS7003;55021;51.554;17.044;2023-02-21T19:21:17;21.75;19.00;10.75
68198;PMS7003;55021;51.554;17.044;2023-02-21T19:36:20;24.00;19.75;10.25
68198;PMS7003;55021;51.554;17.044;2023-02-21T19:51:24;33.50;24.75;12.50
68198;PMS7003;55021;51.554;17.044;2023-02-21T20:06:29;38.50;29.25;16.25
68198;PMS7003;55021;51.554;17.044;2023-02-21T20:21:33;30.25;26.50;13.00
68198;PMS7003;55021;51.554;17.044;2023-02-21T20:36:37;24.50;20.00;12.75
68198;PMS7003;55021;51.554;17.044;2023-02-21T20:51:42;23.25;18.25;9.75
68198;PMS7003;55021;51.554;17.044;2023-02-21T21:06:45;25.75;21.00;11.00
68198;PMS7003;55021;51.554;17.044;2023-02-21T21:21:48;18.00;17.00;7.25
68198;PMS7003;55021;51.554;17.044;2023-02-21T21:36:51;26.75;18.50;10.00
68198;PMS7003;55021;51.554;17.044;2023-02-21T21:51:58;22.25;20.00;10.50
68198;PMS7003;55021;51.554;17.044;2023-02-21T22:07:04;26.00;21.25;11.75
68198;PMS7003;55021;51.554;17.044;2023-02-21T22:22:14;26.50;19.25;10.50
68198;PMS7003;55021;51.554;17.044;2023-02-21T22:37:21;22.25;19.75;11.00
68198;PMS7003;55021;51.554;17.044;2023-02-21T23:39:36;29.25;25.00;11.00
68198;PMS7003;55021;51.554;17.044;2023-02-21T23:54:41;28.50;20.75;11.25
